createdAt,value
2017-08-07T00:01:05.268Z,3.60
2017-08-07T00:03:32.861Z,3.07
2017-08-07T00:06:00.424Z,2.87
2017-08-07T00:08:27.971Z,3.00
2017-08-07T00:10:55.549Z,2.83
2017-08-07T00:13:23.146Z,3.00
2017-08-07T00:15:50.741Z,3.00
2017-08-07T00:18:18.329Z,3.90
2017-08-07T00:20:45.889Z,3.23
2017-08-07T00:23:13.482Z,4.00
2017-08-07T00:25:41.071Z,3.07
2017-08-07T00:28:08.642Z,2.97
2017-08-07T00:30:36.247Z,3.70
2017-08-07T00:33:03.841Z,3.30
2017-08-07T00:35:31.403Z,3.33
2017-08-07T00:37:59.760Z,4.27
2017-08-07T00:40:27.323Z,3.10
2017-08-07T00:42:54.909Z,3.33
2017-08-07T00:45:22.464Z,3.60
2017-08-07T00:47:50.072Z,3.60
2017-08-07T00:50:17.660Z,3.90
2017-08-07T00:52:45.228Z,3.27
2017-08-07T00:55:13.058Z,3.63
2017-08-07T00:57:40.638Z,3.10
2017-08-07T01:00:08.260Z,3.67
2017-08-07T01:02:35.857Z,3.27
2017-08-07T01:05:03.417Z,3.60
2017-08-07T01:07:31.008Z,4.10
2017-08-07T01:09:58.558Z,3.13
2017-08-07T01:12:26.153Z,3.30
2017-08-07T01:14:53.743Z,3.20
2017-08-07T01:17:21.305Z,3.50
2017-08-07T01:19:48.853Z,3.57
2017-08-07T01:22:16.446Z,3.70
2017-08-07T01:24:43.993Z,3.50
2017-08-07T01:27:11.586Z,3.60
2017-08-07T01:29:39.195Z,3.00
2017-08-07T01:32:06.757Z,3.83
2017-08-07T01:34:34.321Z,3.10
2017-08-07T01:37:01.913Z,3.37
2017-08-07T01:39:29.475Z,3.10
2017-08-07T01:41:57.069Z,3.73
2017-08-07T01:44:24.632Z,2.80
2017-08-07T01:46:52.194Z,3.20
2017-08-07T01:49:19.802Z,3.87
2017-08-07T01:51:47.380Z,3.20
2017-08-07T01:54:14.943Z,3.50
2017-08-07T01:56:43.316Z,3.40
2017-08-07T01:59:10.878Z,3.67
2017-08-07T02:01:38.442Z,4.07
2017-08-07T02:04:06.082Z,3.90
2017-08-07T02:06:33.643Z,3.03
2017-08-07T02:09:01.189Z,4.40
2017-08-07T02:11:28.802Z,3.43
2017-08-07T02:13:56.353Z,3.63
2017-08-07T02:16:24.676Z,3.20
2017-08-07T02:18:52.266Z,4.00
2017-08-07T02:21:19.834Z,3.10
2017-08-07T02:23:47.436Z,3.47
2017-08-07T02:26:14.991Z,3.30
2017-08-07T02:28:42.553Z,2.73
2017-08-07T02:31:10.155Z,4.13
2017-08-07T02:33:37.703Z,3.50
2017-08-07T02:36:05.275Z,3.30
2017-08-07T02:38:32.859Z,3.47
2017-08-07T02:41:00.409Z,4.07
2017-08-07T02:43:27.999Z,3.63
2017-08-07T02:45:55.597Z,3.53
2017-08-07T02:48:23.171Z,3.10
2017-08-07T02:50:50.763Z,2.97
2017-08-07T02:53:18.558Z,2.93
2017-08-07T02:55:46.114Z,3.40
2017-08-07T02:58:13.706Z,3.57
2017-08-07T03:00:41.299Z,3.30
2017-08-07T03:03:08.862Z,3.40
2017-08-07T03:05:36.454Z,4.20
2017-08-07T03:08:04.858Z,3.50
2017-08-07T03:10:32.405Z,3.90
2017-08-07T03:12:59.998Z,3.30
2017-08-07T03:15:27.562Z,3.07
2017-08-07T03:17:55.125Z,2.93
2017-08-07T03:20:22.717Z,3.03
2017-08-07T03:22:51.045Z,3.27
2017-08-07T03:25:18.608Z,4.07
2017-08-07T03:27:46.193Z,4.17
2017-08-07T03:30:13.751Z,3.50
2017-08-07T03:32:41.342Z,3.57
2017-08-07T03:35:08.904Z,3.40
2017-08-07T03:37:36.467Z,3.00
2017-08-07T03:40:04.043Z,3.90
2017-08-07T03:42:31.596Z,3.40
2017-08-07T03:44:59.184Z,3.87
2017-08-07T03:47:26.734Z,3.47
2017-08-07T03:49:54.282Z,3.17
2017-08-07T03:52:21.881Z,3.17
2017-08-07T03:54:49.436Z,3.50
2017-08-07T03:57:17.030Z,3.93
2017-08-07T03:59:45.341Z,3.80
2017-08-07T04:02:12.890Z,3.50
2017-08-07T04:04:40.486Z,3.00
2017-08-07T04:07:08.046Z,3.80
2017-08-07T04:09:35.609Z,4.70
2017-08-07T04:12:03.201Z,3.03
2017-08-07T04:14:30.759Z,3.60
2017-08-07T04:16:58.341Z,3.20
2017-08-07T04:19:26.649Z,3.20
2017-08-07T04:21:54.233Z,2.83
2017-08-07T04:24:21.789Z,3.57
2017-08-07T04:26:49.358Z,3.53
2017-08-07T04:29:16.946Z,3.07
2017-08-07T04:31:44.530Z,3.40
2017-08-07T04:34:12.122Z,3.40
2017-08-07T04:36:39.684Z,3.27
2017-08-07T04:39:10.294Z,3.03
2017-08-07T04:41:37.872Z,3.43
2017-08-07T04:44:06.934Z,3.30
2017-08-07T04:46:35.292Z,3.03
2017-08-07T04:49:03.614Z,3.70
2017-08-07T04:51:31.212Z,3.10
2017-08-07T04:53:58.807Z,3.50
2017-08-07T04:56:26.363Z,3.57
2017-08-07T04:58:54.711Z,3.40
2017-08-07T05:01:22.254Z,4.00
2017-08-07T05:03:49.852Z,3.40
2017-08-07T05:06:17.415Z,3.93
2017-08-07T05:08:45.745Z,3.60
2017-08-07T05:11:13.321Z,3.43
2017-08-07T05:13:40.913Z,3.53
2017-08-07T05:16:09.226Z,4.93
2017-08-07T05:18:36.806Z,3.83
2017-08-07T05:21:04.367Z,5.93
2017-08-07T05:23:31.954Z,5.77
2017-08-07T05:25:59.537Z,10.97
2017-08-07T05:28:27.130Z,6.23
2017-08-07T05:30:54.724Z,7.40
2017-08-07T05:33:22.287Z,6.67
2017-08-07T05:35:49.875Z,8.27
2017-08-07T05:38:18.223Z,8.63
2017-08-07T05:40:45.812Z,7.30
2017-08-07T05:43:14.118Z,7.37
2017-08-07T05:45:41.706Z,7.10
2017-08-07T05:48:09.291Z,6.67
2017-08-07T05:50:36.892Z,6.53
2017-08-07T05:53:04.433Z,5.80
2017-08-07T05:55:32.754Z,5.80
2017-08-07T05:58:00.346Z,6.17
2017-08-07T06:00:27.909Z,6.83
2017-08-07T06:02:55.503Z,6.40
2017-08-07T06:05:23.070Z,6.57
2017-08-07T06:07:50.614Z,6.47
2017-08-07T06:10:18.206Z,6.03
2017-08-07T06:12:45.754Z,6.37
2017-08-07T06:15:13.378Z,6.97
2017-08-07T06:17:40.925Z,6.40
2017-08-07T06:20:08.541Z,6.23
2017-08-07T06:22:36.096Z,5.80
2017-08-07T06:25:03.659Z,6.87
2017-08-07T06:27:31.253Z,5.93
2017-08-07T06:29:58.812Z,6.50
2017-08-07T06:32:26.391Z,5.97
2017-08-07T06:34:53.985Z,6.20
2017-08-07T06:37:22.148Z,6.17
2017-08-07T06:39:49.771Z,5.73
2017-08-07T06:42:17.362Z,6.20
2017-08-07T06:44:44.911Z,5.27
2017-08-07T06:47:12.459Z,6.10
2017-08-07T06:49:40.051Z,4.60
2017-08-07T06:52:07.615Z,4.27
2017-08-07T06:54:35.178Z,4.40
2017-08-07T06:57:02.769Z,3.90
2017-08-07T06:59:30.318Z,4.30
2017-08-07T07:01:59.561Z,3.93
2017-08-07T07:04:35.862Z,3.40
2017-08-07T07:07:05.254Z,3.17
2017-08-07T07:09:32.855Z,2.60
2017-08-07T07:12:01.812Z,3.33
2017-08-07T07:14:32.123Z,2.03
2017-08-07T07:16:59.760Z,2.10
2017-08-07T07:19:27.353Z,1.93
2017-08-07T07:21:58.667Z,2.30
2017-08-07T07:24:26.259Z,2.27
2017-08-07T07:26:53.821Z,1.80
2017-08-07T07:29:21.384Z,2.00
2017-08-07T07:31:49.742Z,2.20
2017-08-07T07:34:17.291Z,2.30
2017-08-07T07:36:44.883Z,1.80
2017-08-07T07:39:14.126Z,2.17
2017-08-07T07:41:41.674Z,2.77
2017-08-07T07:44:09.266Z,2.00
2017-08-07T07:46:36.814Z,2.03
2017-08-07T07:49:04.407Z,2.10
2017-08-07T07:51:31.970Z,2.10
2017-08-07T07:53:59.563Z,2.43
2017-08-07T07:56:27.126Z,1.57
2017-08-07T07:58:54.723Z,1.70
2017-08-07T08:01:22.267Z,2.03
2017-08-07T08:03:49.829Z,2.27
2017-08-07T08:06:17.421Z,1.83
2017-08-07T08:08:44.983Z,2.07
2017-08-07T08:11:14.062Z,2.20
2017-08-07T08:13:41.634Z,2.13
2017-08-07T08:16:09.188Z,2.20
2017-08-07T08:18:36.781Z,1.90
2017-08-07T08:21:04.344Z,2.60
2017-08-07T08:23:31.907Z,2.10
2017-08-07T08:25:59.485Z,2.60
2017-08-07T08:28:27.031Z,2.57
2017-08-07T08:30:54.624Z,1.67
2017-08-07T08:33:22.172Z,2.00
2017-08-07T08:35:49.720Z,2.00
2017-08-07T08:38:17.313Z,2.40
2017-08-07T08:40:44.876Z,2.57
2017-08-07T08:43:14.019Z,2.70
2017-08-07T08:45:44.471Z,2.70
2017-08-07T08:48:18.471Z,2.37
2017-08-07T08:50:46.858Z,2.70
2017-08-07T08:53:15.530Z,2.17
2017-08-07T08:55:44.370Z,2.73
2017-08-07T08:58:14.738Z,2.00
2017-08-07T09:00:43.125Z,2.33
2017-08-07T09:03:10.719Z,2.13
2017-08-07T09:05:39.907Z,2.57
2017-08-07T09:08:12.136Z,2.53
2017-08-07T09:10:40.638Z,2.33
2017-08-07T09:13:08.185Z,2.00
2017-08-07T09:15:35.829Z,1.60
2017-08-07T09:18:05.126Z,2.73
2017-08-07T09:20:33.478Z,2.40
2017-08-07T09:23:02.064Z,1.97
2017-08-07T09:25:31.814Z,2.30
2017-08-07T09:28:01.909Z,1.77
2017-08-07T09:30:32.122Z,2.10
2017-08-07T09:33:00.900Z,2.57
2017-08-07T09:35:29.318Z,1.90
2017-08-07T09:37:57.670Z,2.00
2017-08-07T09:40:25.223Z,2.40
2017-08-07T09:42:52.810Z,2.30
2017-08-07T09:45:21.565Z,1.90
2017-08-07T09:47:49.757Z,2.43
2017-08-07T09:50:19.546Z,2.60
2017-08-07T09:52:47.176Z,2.00
2017-08-07T09:55:14.755Z,2.70
2017-08-07T09:57:42.318Z,1.40
2017-08-07T10:00:09.956Z,1.90
2017-08-07T10:02:38.240Z,2.10
2017-08-07T10:05:06.717Z,2.00
2017-08-07T10:07:34.279Z,1.70
2017-08-07T10:10:04.133Z,1.73
2017-08-07T10:12:32.098Z,1.97
2017-08-07T10:14:59.654Z,1.80
2017-08-07T10:17:27.232Z,1.50
2017-08-07T10:19:57.655Z,1.33
2017-08-07T10:22:26.092Z,1.47
2017-08-07T10:24:54.661Z,1.57
2017-08-07T10:27:22.208Z,1.63
2017-08-07T10:29:51.391Z,1.47
2017-08-07T10:32:20.154Z,1.30
2017-08-07T10:34:47.701Z,1.70
2017-08-07T10:37:15.909Z,1.80
2017-08-07T10:39:43.476Z,2.10
2017-08-07T10:42:13.397Z,2.10
2017-08-07T10:44:42.049Z,1.47
2017-08-07T10:47:09.687Z,1.90
2017-08-07T10:49:37.969Z,1.90
2017-08-07T10:52:05.636Z,2.30
2017-08-07T10:54:33.261Z,1.87
2017-08-07T10:57:01.556Z,1.43
2017-08-07T10:59:29.138Z,2.07
2017-08-07T11:01:56.718Z,1.47
2017-08-07T11:04:24.262Z,1.60
2017-08-07T11:06:51.853Z,2.07
2017-08-07T11:09:19.447Z,1.90
2017-08-07T11:11:46.995Z,1.63
2017-08-07T11:14:14.557Z,2.27
2017-08-07T11:16:42.151Z,1.90
2017-08-07T11:19:09.697Z,2.17
2017-08-07T11:21:37.246Z,1.90
2017-08-07T11:24:04.838Z,1.60
2017-08-07T11:26:32.387Z,1.80
2017-08-07T11:28:59.981Z,2.10
2017-08-07T11:31:27.526Z,2.03
2017-08-07T11:33:55.074Z,2.03
2017-08-07T11:36:22.666Z,2.23
2017-08-07T11:38:50.235Z,2.00
2017-08-07T11:41:18.558Z,2.00
2017-08-07T11:43:46.152Z,2.60
2017-08-07T11:46:13.713Z,2.13
2017-08-07T11:48:41.266Z,1.97
2017-08-07T11:51:08.854Z,2.13
2017-08-07T11:53:37.212Z,2.40
2017-08-07T11:56:04.775Z,2.43
2017-08-07T11:58:32.367Z,2.00
2017-08-07T12:00:59.957Z,2.40
2017-08-07T12:03:27.545Z,2.23
2017-08-07T12:05:55.099Z,1.87
2017-08-07T12:08:22.678Z,2.27
2017-08-07T12:10:50.271Z,2.03
2017-08-07T12:13:17.837Z,2.43
2017-08-07T12:15:45.412Z,1.93
2017-08-07T12:18:12.990Z,2.10
2017-08-07T12:20:40.545Z,2.37
2017-08-07T12:23:08.144Z,1.97
2017-08-07T12:25:35.707Z,2.60
2017-08-07T12:28:03.272Z,2.57
2017-08-07T12:30:30.864Z,2.10
2017-08-07T12:32:58.455Z,2.37
2017-08-07T12:35:26.004Z,3.00
2017-08-07T12:37:53.586Z,2.30
2017-08-07T12:40:21.129Z,1.87
2017-08-07T12:42:48.723Z,2.03
2017-08-07T12:45:16.315Z,2.10
2017-08-07T12:47:43.878Z,2.30
2017-08-07T12:50:11.426Z,2.30
2017-08-07T12:52:39.784Z,2.30
2017-08-07T12:55:07.347Z,2.20
2017-08-07T12:57:34.939Z,2.43
2017-08-07T13:00:02.503Z,2.57
2017-08-07T13:02:30.096Z,2.60
2017-08-07T13:04:57.642Z,2.40
2017-08-07T13:07:25.204Z,3.03
2017-08-07T13:09:52.783Z,2.00
2017-08-07T13:12:20.333Z,2.57
2017-08-07T13:14:47.924Z,1.90
2017-08-07T13:17:15.486Z,2.63
2017-08-07T13:19:43.038Z,2.60
2017-08-07T13:22:10.605Z,2.30
2017-08-07T13:24:38.192Z,2.67
2017-08-07T13:27:05.784Z,2.50
2017-08-07T13:29:33.371Z,2.40
2017-08-07T13:32:01.661Z,2.20
2017-08-07T13:34:29.206Z,2.00
2017-08-07T13:36:56.803Z,2.77
2017-08-07T13:39:25.126Z,2.73
2017-08-07T13:41:52.720Z,2.07
2017-08-07T13:44:20.283Z,1.70
2017-08-07T13:46:47.845Z,2.00
2017-08-07T13:49:15.440Z,2.27
2017-08-07T13:51:43.000Z,2.97
2017-08-07T13:54:10.578Z,1.90
2017-08-07T13:56:38.133Z,2.30
2017-08-07T13:59:05.719Z,2.10
2017-08-07T14:01:33.284Z,2.27
2017-08-07T14:04:00.846Z,2.63
2017-08-07T14:06:28.422Z,2.77
2017-08-07T14:08:56.737Z,2.33
2017-08-07T14:11:24.299Z,2.27
2017-08-07T14:13:51.891Z,2.40
2017-08-07T14:16:19.439Z,2.57
2017-08-07T14:18:47.001Z,3.20
2017-08-07T14:21:14.579Z,2.70
2017-08-07T14:23:42.135Z,2.90
2017-08-07T14:26:09.720Z,2.70
2017-08-07T14:28:37.282Z,3.03
2017-08-07T14:31:05.640Z,3.13
2017-08-07T14:33:33.203Z,2.87
2017-08-07T14:36:00.797Z,3.20
2017-08-07T14:38:28.359Z,2.40
2017-08-07T14:40:55.945Z,3.10
2017-08-07T14:43:23.545Z,2.40
2017-08-07T14:45:51.091Z,2.87
2017-08-07T14:48:18.640Z,2.60
2017-08-07T14:50:46.233Z,3.63
2017-08-07T14:53:13.841Z,2.57
2017-08-07T14:55:41.389Z,2.70
2017-08-07T14:58:08.981Z,2.47
2017-08-07T15:00:36.543Z,2.63
2017-08-07T15:03:04.105Z,3.20
2017-08-07T15:05:31.683Z,3.43
2017-08-07T15:07:59.248Z,2.60
2017-08-07T15:10:26.840Z,2.90
2017-08-07T15:12:54.613Z,2.87
2017-08-07T15:15:22.222Z,2.93
2017-08-07T15:17:49.771Z,2.93
2017-08-07T15:20:17.348Z,3.03
2017-08-07T15:22:44.906Z,3.00
2017-08-07T15:25:12.488Z,3.27
2017-08-07T15:27:40.817Z,2.77
2017-08-07T15:30:08.409Z,2.90
2017-08-07T15:32:35.974Z,2.60
2017-08-07T15:35:03.565Z,3.07
2017-08-07T15:37:31.128Z,2.60
2017-08-07T15:39:58.759Z,3.03
2017-08-07T15:42:26.396Z,2.60
2017-08-07T15:44:53.952Z,2.37
2017-08-07T15:47:21.501Z,2.40
2017-08-07T15:49:49.093Z,3.27
2017-08-07T15:52:16.944Z,2.60
2017-08-07T15:54:44.489Z,2.90
2017-08-07T15:57:12.052Z,2.80
2017-08-07T15:59:41.405Z,2.57
2017-08-07T16:02:09.758Z,3.53
2017-08-07T16:04:37.352Z,2.47
2017-08-07T16:07:04.899Z,2.43
2017-08-07T16:09:33.225Z,2.40
2017-08-07T16:12:00.820Z,2.57
2017-08-07T16:14:28.382Z,3.00
2017-08-07T16:16:55.982Z,2.90
2017-08-07T16:19:28.200Z,3.67
2017-08-07T16:21:56.088Z,2.73
2017-08-07T16:24:23.910Z,2.40
2017-08-07T16:26:51.463Z,2.83
2017-08-07T16:29:19.189Z,3.70
2017-08-07T16:31:46.955Z,3.03
2017-08-07T16:34:14.842Z,2.87
2017-08-07T16:36:42.405Z,3.20
2017-08-07T16:39:09.954Z,2.80
2017-08-07T16:41:37.596Z,2.60
2017-08-07T16:44:05.354Z,2.80
2017-08-07T16:46:33.637Z,2.60
2017-08-07T16:49:02.163Z,3.10
2017-08-07T16:51:30.348Z,3.50
2017-08-07T16:53:58.203Z,2.80
2017-08-07T16:56:25.914Z,3.80
2017-08-07T16:58:57.117Z,2.77
2017-08-07T17:01:29.151Z,3.73
2017-08-07T17:04:00.839Z,3.20
2017-08-07T17:06:31.334Z,3.23
2017-08-07T17:08:59.873Z,3.23
2017-08-07T17:11:27.459Z,3.80
2017-08-07T17:13:55.641Z,4.87
2017-08-07T17:16:23.275Z,5.20
2017-08-07T17:18:51.029Z,5.23
2017-08-07T17:21:18.828Z,3.00
2017-08-07T17:23:47.315Z,3.80
2017-08-07T17:26:15.854Z,3.60
2017-08-07T17:28:43.612Z,3.90
2017-08-07T17:31:11.482Z,3.57
2017-08-07T17:33:39.390Z,2.97
2017-08-07T17:36:07.808Z,3.80
2017-08-07T17:38:35.632Z,4.60
2017-08-07T17:41:04.085Z,3.60
2017-08-07T17:43:31.814Z,3.90
2017-08-07T17:45:59.460Z,3.67
2017-08-07T17:48:28.033Z,3.97
2017-08-07T17:50:56.030Z,3.73
2017-08-07T17:53:23.700Z,3.60
2017-08-07T17:55:51.484Z,3.50
2017-08-07T17:58:20.159Z,3.60
2017-08-07T18:00:47.738Z,3.60
2017-08-07T18:03:15.355Z,3.73
2017-08-07T18:05:43.108Z,3.63
2017-08-07T18:08:11.052Z,4.23
2017-08-07T18:10:39.533Z,3.73
2017-08-07T18:13:07.144Z,3.63
2017-08-07T18:15:34.968Z,3.80
2017-08-07T18:18:03.567Z,4.47
2017-08-07T18:20:31.362Z,3.23
2017-08-07T18:22:58.966Z,3.77
2017-08-07T18:25:26.962Z,3.40
2017-08-07T18:27:54.510Z,3.30
2017-08-07T18:30:22.838Z,3.20
2017-08-07T18:32:50.430Z,3.23
2017-08-07T18:35:18.008Z,2.87
2017-08-07T18:37:46.366Z,3.83
2017-08-07T18:40:13.919Z,3.10
2017-08-07T18:42:42.245Z,3.40
2017-08-07T18:45:09.853Z,3.37
2017-08-07T18:47:37.415Z,3.77
2017-08-07T18:50:05.006Z,2.83
2017-08-07T18:52:32.555Z,2.73
2017-08-07T18:55:00.748Z,3.10
2017-08-07T18:57:30.413Z,3.30
2017-08-07T18:59:57.958Z,3.70
2017-08-07T19:02:25.977Z,3.10
2017-08-07T19:04:54.300Z,3.47
2017-08-07T19:07:21.862Z,3.30
2017-08-07T19:09:49.470Z,4.20
2017-08-07T19:12:17.799Z,3.10
2017-08-07T19:14:46.081Z,3.43
2017-08-07T19:17:13.675Z,3.40
2017-08-07T19:19:41.222Z,3.13
2017-08-07T19:22:08.767Z,4.27
2017-08-07T19:24:36.347Z,4.90
2017-08-07T19:27:03.912Z,5.00
2017-08-07T19:29:31.503Z,4.57
2017-08-07T19:31:59.066Z,6.00
2017-08-07T19:34:26.628Z,7.20
2017-08-07T19:36:54.822Z,4.80
2017-08-07T19:39:22.385Z,3.80
2017-08-07T19:41:50.008Z,4.40
2017-08-07T19:44:18.339Z,4.00
2017-08-07T19:46:46.500Z,3.43
2017-08-07T19:49:14.992Z,3.57
2017-08-07T19:51:42.535Z,3.10
2017-08-07T19:54:10.119Z,3.73
2017-08-07T19:56:37.666Z,4.97
2017-08-07T19:59:05.244Z,2.83
2017-08-07T20:01:32.845Z,3.10
2017-08-07T20:04:00.402Z,3.27
2017-08-07T20:06:29.659Z,3.23
2017-08-07T20:08:57.256Z,3.90
2017-08-07T20:11:24.831Z,3.17
2017-08-07T20:13:53.630Z,3.80
2017-08-07T20:16:21.247Z,3.23
2017-08-07T20:18:48.809Z,4.20
2017-08-07T20:21:16.417Z,3.30
2017-08-07T20:23:43.972Z,3.57
2017-08-07T20:26:11.558Z,3.47
2017-08-07T20:28:39.164Z,3.77
2017-08-07T20:31:06.790Z,4.53
2017-08-07T20:33:34.352Z,4.13
2017-08-07T20:36:01.949Z,3.70
2017-08-07T20:38:29.507Z,3.03
2017-08-07T20:40:58.411Z,4.53
2017-08-07T20:43:25.983Z,4.20
2017-08-07T20:45:53.576Z,4.00
2017-08-07T20:48:21.172Z,4.03
2017-08-07T20:50:48.727Z,4.20
2017-08-07T20:53:16.309Z,4.97
2017-08-07T20:55:43.857Z,4.30
2017-08-07T20:58:12.216Z,3.60
2017-08-07T21:00:39.765Z,4.47
2017-08-07T21:03:07.311Z,4.50
2017-08-07T21:05:34.903Z,4.47
2017-08-07T21:08:02.454Z,4.43
2017-08-07T21:10:30.052Z,5.30
2017-08-07T21:12:58.418Z,4.13
2017-08-07T21:15:26.947Z,4.40
2017-08-07T21:17:54.502Z,4.43
2017-08-07T21:20:22.115Z,4.10
2017-08-07T21:22:49.675Z,4.10
2017-08-07T21:25:17.236Z,4.20
2017-08-07T21:27:45.614Z,6.80
2017-08-07T21:30:13.172Z,4.40
2017-08-07T21:32:40.735Z,4.60
2017-08-07T21:35:08.342Z,4.57
2017-08-07T21:37:35.906Z,4.33
2017-08-07T21:40:03.512Z,4.60
2017-08-07T21:42:31.075Z,4.60
2017-08-07T21:44:58.682Z,4.17
2017-08-07T21:47:26.965Z,4.40
2017-08-07T21:49:54.513Z,4.40
2017-08-07T21:52:22.126Z,4.47
2017-08-07T21:54:49.689Z,4.13
2017-08-07T21:57:17.247Z,4.50
2017-08-07T21:59:44.825Z,4.60
2017-08-07T22:02:12.372Z,4.43
2017-08-07T22:04:39.981Z,4.80
2017-08-07T22:07:07.542Z,3.83
2017-08-07T22:09:35.091Z,5.10
2017-08-07T22:12:03.433Z,4.40
2017-08-07T22:14:30.981Z,4.50
2017-08-07T22:16:58.574Z,4.43
2017-08-07T22:19:26.167Z,4.60
2017-08-07T22:21:53.731Z,4.80
2017-08-07T22:24:21.293Z,4.47
2017-08-07T22:26:48.904Z,4.07
2017-08-07T22:29:16.469Z,5.37
2017-08-07T22:31:44.745Z,5.17
2017-08-07T22:34:12.355Z,4.50
2017-08-07T22:36:39.928Z,4.80
2017-08-07T22:39:07.480Z,4.80
2017-08-07T22:41:35.072Z,4.60
2017-08-07T22:44:02.666Z,5.40
2017-08-07T22:46:30.257Z,4.03
2017-08-07T22:48:57.806Z,5.13
2017-08-07T22:51:25.353Z,4.50
2017-08-07T22:53:52.932Z,4.53
2017-08-07T22:56:20.481Z,4.03
2017-08-07T22:58:48.072Z,4.57
2017-08-07T23:01:15.664Z,3.87
2017-08-07T23:03:43.212Z,4.83
2017-08-07T23:06:11.570Z,4.50
2017-08-07T23:08:39.132Z,5.13
2017-08-07T23:11:06.727Z,4.27
2017-08-07T23:13:34.274Z,4.57
2017-08-07T23:16:02.601Z,3.53
2017-08-07T23:18:30.194Z,4.23
2017-08-07T23:20:57.789Z,4.73
2017-08-07T23:23:25.351Z,4.60
2017-08-07T23:25:52.922Z,4.10
2017-08-07T23:28:20.476Z,4.57
2017-08-07T23:30:48.038Z,5.07
2017-08-07T23:33:15.631Z,4.07
2017-08-07T23:35:43.224Z,6.27
2017-08-07T23:38:11.553Z,5.03
2017-08-07T23:40:39.144Z,5.10
2017-08-07T23:43:06.737Z,4.57
2017-08-07T23:45:34.301Z,5.23
2017-08-07T23:48:02.119Z,4.30
2017-08-07T23:50:29.705Z,5.30
2017-08-07T23:52:57.254Z,5.30
2017-08-07T23:55:24.858Z,5.40
2017-08-07T23:57:52.415Z,5.30
